sensor_id;sensor_type;location;lat;lon;timestamp;temperature;humidity
28608;DHT22;15802;45.654;13.804;2023-03-04T00:02:18;7.20;99.90
28608;DHT22;15802;45.654;13.804;2023-03-04T00:04:44;7.10;99.90
28608;DHT22;15802;45.654;13.804;2023-03-04T00:07:09;7.10;99.90
28608;DHT22;15802;45.654;13.804;2023-03-04T00:09:35;7.10;99.90
28608;DHT22;15802;45.654;13.804;2023-03-04T00:12:01;7.00;99.90
28608;DHT22;15802;45.654;13.804;2023-03-04T00:14:26;7.00;99.90
28608;DHT22;15802;45.654;13.804;2023-03-04T00:16:52;7.00;99.90
28608;DHT22;15802;45.654;13.804;2023-03-04T00:19:17;7.00;99.90
28608;DHT22;15802;45.654;13.804;2023-03-04T00:21:43;7.00;99.90
28608;DHT22;15802;45.654;13.804;2023-03-04T00:24:09;7.00;99.90
28608;DHT22;15802;45.654;13.804;2023-03-04T00:26:34;6.90;99.90
28608;DHT22;15802;45.654;13.804;2023-03-04T00:29:02;6.90;99.90
28608;DHT22;15802;45.654;13.804;2023-03-04T00:31:28;6.90;99.90
28608;DHT22;15802;45.654;13.804;2023-03-04T00:33:54;6.80;99.90
28608;DHT22;15802;45.654;13.804;2023-03-04T00:36:19;6.70;99.90
28608;DHT22;15802;45.654;13.804;2023-03-04T00:38:45;6.70;99.90
28608;DHT22;15802;45.654;13.804;2023-03-04T00:41:11;6.70;99.90
28608;DHT22;15802;45.654;13.804;2023-03-04T00:43:36;6.70;99.90
28608;DHT22;15802;45.654;13.804;2023-03-04T00:46:02;6.80;99.90
28608;DHT22;15802;45.654;13.804;2023-03-04T00:48:28;6.80;99.90
28608;DHT22;15802;45.654;13.804;2023-03-04T00:50:53;6.80;99.90
28608;DHT22;15802;45.654;13.804;2023-03-04T00:53:19;6.90;99.90
28608;DHT22;15802;45.654;13.804;2023-03-04T00:55:45;7.20;99.90
28608;DHT22;15802;45.654;13.804;2023-03-04T00:58:11;7.50;99.90
28608;DHT22;15802;45.654;13.804;2023-03-04T01:00:36;7.70;99.90
28608;DHT22;15802;45.654;13.804;2023-03-04T01:03:02;7.90;99.90
28608;DHT22;15802;45.654;13.804;2023-03-04T01:05:28;8.00;99.90
28608;DHT22;15802;45.654;13.804;2023-03-04T01:07:54;8.20;99.90
28608;DHT22;15802;45.654;13.804;2023-03-04T01:10:19;8.30;99.90
28608;DHT22;15802;45.654;13.804;2023-03-04T01:12:45;8.30;99.90
28608;DHT22;15802;45.654;13.804;2023-03-04T01:15:11;8.40;99.90
28608;DHT22;15802;45.654;13.804;2023-03-04T01:17:37;8.30;99.90
28608;DHT22;15802;45.654;13.804;2023-03-04T01:20:03;8.30;99.90
28608;DHT22;15802;45.654;13.804;2023-03-04T01:22:29;8.20;99.90
28608;DHT22;15802;45.654;13.804;2023-03-04T01:24:55;8.20;99.90
28608;DHT22;15802;45.654;13.804;2023-03-04T01:27:21;8.20;99.90
28608;DHT22;15802;45.654;13.804;2023-03-04T01:29:46;8.30;99.90
28608;DHT22;15802;45.654;13.804;2023-03-04T01:32:12;8.30;99.90
28608;DHT22;15802;45.654;13.804;2023-03-04T01:34:37;8.40;99.90
28608;DHT22;15802;45.654;13.804;2023-03-04T01:37:03;8.40;99.90
28608;DHT22;15802;45.654;13.804;2023-03-04T01:39:29;8.30;99.90
28608;DHT22;15802;45.654;13.804;2023-03-04T01:41:55;8.40;99.90
28608;DHT22;15802;45.654;13.804;2023-03-04T01:44:20;8.50;99.90
28608;DHT22;15802;45.654;13.804;2023-03-04T01:46:47;8.50;99.90
28608;DHT22;15802;45.654;13.804;2023-03-04T01:49:14;8.50;99.90
28608;DHT22;15802;45.654;13.804;2023-03-04T01:51:43;8.60;99.90
28608;DHT22;15802;45.654;13.804;2023-03-04T01:54:08;8.60;99.90
28608;DHT22;15802;45.654;13.804;2023-03-04T01:56:35;8.60;99.90
28608;DHT22;15802;45.654;13.804;2023-03-04T01:59:05;8.60;99.90
28608;DHT22;15802;45.654;13.804;2023-03-04T02:01:31;8.60;99.90
28608;DHT22;15802;45.654;13.804;2023-03-04T02:03:56;8.60;99.90
28608;DHT22;15802;45.654;13.804;2023-03-04T02:06:22;8.70;99.90
28608;DHT22;15802;45.654;13.804;2023-03-04T02:08:48;8.70;99.90
28608;DHT22;15802;45.654;13.804;2023-03-04T02:11:13;8.80;99.90
28608;DHT22;15802;45.654;13.804;2023-03-04T02:13:39;8.80;99.90
28608;DHT22;15802;45.654;13.804;2023-03-04T02:16:05;8.80;99.90
28608;DHT22;15802;45.654;13.804;2023-03-04T02:18:31;8.80;99.90
28608;DHT22;15802;45.654;13.804;2023-03-04T02:23:52;8.90;99.90
28608;DHT22;15802;45.654;13.804;2023-03-04T02:26:21;8.90;99.90
28608;DHT22;15802;45.654;13.804;2023-03-04T02:28:47;8.90;99.90
28608;DHT22;15802;45.654;13.804;2023-03-04T02:31:19;9.00;99.90
28608;DHT22;15802;45.654;13.804;2023-03-04T02:33:46;8.90;99.90
28608;DHT22;15802;45.654;13.804;2023-03-04T02:36:11;8.90;99.90
28608;DHT22;15802;45.654;13.804;2023-03-04T02:38:37;8.80;99.90
28608;DHT22;15802;45.654;13.804;2023-03-04T02:41:03;8.80;99.90
28608;DHT22;15802;45.654;13.804;2023-03-04T02:43:29;8.80;99.90
28608;DHT22;15802;45.654;13.804;2023-03-04T02:45:54;8.80;99.90
28608;DHT22;15802;45.654;13.804;2023-03-04T02:48:20;8.80;99.90
28608;DHT22;15802;45.654;13.804;2023-03-04T02:50:49;8.80;99.90
28608;DHT22;15802;45.654;13.804;2023-03-04T02:53:15;8.80;99.90
28608;DHT22;15802;45.654;13.804;2023-03-04T02:55:41;8.90;99.90
28608;DHT22;15802;45.654;13.804;2023-03-04T02:58:08;8.90;99.90
28608;DHT22;15802;45.654;13.804;2023-03-04T03:00:34;8.90;99.90
28608;DHT22;15802;45.654;13.804;2023-03-04T03:02:59;8.90;99.90
28608;DHT22;15802;45.654;13.804;2023-03-04T03:05:26;9.00;99.90
28608;DHT22;15802;45.654;13.804;2023-03-04T03:07:52;9.00;99.90
28608;DHT22;15802;45.654;13.804;2023-03-04T03:10:17;9.00;99.90
28608;DHT22;15802;45.654;13.804;2023-03-04T03:12:43;9.10;99.90
28608;DHT22;15802;45.654;13.804;2023-03-04T03:15:09;9.10;99.90
28608;DHT22;15802;45.654;13.804;2023-03-04T03:17:35;9.10;99.90
28608;DHT22;15802;45.654;13.804;2023-03-04T03:20:00;9.00;99.90
28608;DHT22;15802;45.654;13.804;2023-03-04T03:22:26;9.00;99.90
28608;DHT22;15802;45.654;13.804;2023-03-04T03:24:52;9.00;99.90
28608;DHT22;15802;45.654;13.804;2023-03-04T03:27:17;9.00;99.90
28608;DHT22;15802;45.654;13.804;2023-03-04T03:29:43;9.00;99.90
28608;DHT22;15802;45.654;13.804;2023-03-04T03:32:09;8.90;99.90
28608;DHT22;15802;45.654;13.804;2023-03-04T03:34:34;8.80;99.90
28608;DHT22;15802;45.654;13.804;2023-03-04T03:37:00;8.70;99.90
28608;DHT22;15802;45.654;13.804;2023-03-04T03:39:26;8.70;99.90
28608;DHT22;15802;45.654;13.804;2023-03-04T03:41:51;8.80;99.90
28608;DHT22;15802;45.654;13.804;2023-03-04T03:44:17;8.70;99.90
28608;DHT22;15802;45.654;13.804;2023-03-04T03:46:42;8.70;99.90
28608;DHT22;15802;45.654;13.804;2023-03-04T03:49:08;8.70;99.90
28608;DHT22;15802;45.654;13.804;2023-03-04T03:51:34;8.60;99.90
28608;DHT22;15802;45.654;13.804;2023-03-04T03:53:59;8.60;99.90
28608;DHT22;15802;45.654;13.804;2023-03-04T03:56:25;8.50;99.90
28608;DHT22;15802;45.654;13.804;2023-03-04T03:58:51;8.40;99.90
28608;DHT22;15802;45.654;13.804;2023-03-04T04:01:16;8.40;99.90
28608;DHT22;15802;45.654;13.804;2023-03-04T04:03:42;8.40;99.90
28608;DHT22;15802;45.654;13.804;2023-03-04T04:06:08;8.30;99.90
28608;DHT22;15802;45.654;13.804;2023-03-04T04:08:33;8.30;99.90
28608;DHT22;15802;45.654;13.804;2023-03-04T04:10:59;8.30;99.90
28608;DHT22;15802;45.654;13.804;2023-03-04T04:13:24;8.30;99.90
28608;DHT22;15802;45.654;13.804;2023-03-04T04:15:50;8.30;99.90
28608;DHT22;15802;45.654;13.804;2023-03-04T04:18:16;8.30;99.90
28608;DHT22;15802;45.654;13.804;2023-03-04T04:20:42;8.30;99.90
28608;DHT22;15802;45.654;13.804;2023-03-04T04:23:07;8.30;99.90
28608;DHT22;15802;45.654;13.804;2023-03-04T04:25:33;8.30;99.90
28608;DHT22;15802;45.654;13.804;2023-03-04T04:27:59;8.30;99.90
28608;DHT22;15802;45.654;13.804;2023-03-04T04:30:24;8.40;99.90
28608;DHT22;15802;45.654;13.804;2023-03-04T04:32:50;8.40;99.90
28608;DHT22;15802;45.654;13.804;2023-03-04T04:35:16;8.50;99.90
28608;DHT22;15802;45.654;13.804;2023-03-04T04:37:41;8.50;99.90
28608;DHT22;15802;45.654;13.804;2023-03-04T04:40:07;8.50;99.90
28608;DHT22;15802;45.654;13.804;2023-03-04T04:42:33;8.50;99.90
28608;DHT22;15802;45.654;13.804;2023-03-04T04:44:59;8.60;99.90
28608;DHT22;15802;45.654;13.804;2023-03-04T04:47:25;8.60;99.90
28608;DHT22;15802;45.654;13.804;2023-03-04T04:49:50;8.60;99.90
28608;DHT22;15802;45.654;13.804;2023-03-04T04:52:16;8.60;99.90
28608;DHT22;15802;45.654;13.804;2023-03-04T04:54:42;8.60;99.90
28608;DHT22;15802;45.654;13.804;2023-03-04T04:57:08;8.50;99.90
28608;DHT22;15802;45.654;13.804;2023-03-04T04:59:33;8.50;99.90
28608;DHT22;15802;45.654;13.804;2023-03-04T05:01:59;8.50;99.90
28608;DHT22;15802;45.654;13.804;2023-03-04T05:04:24;8.50;99.90
28608;DHT22;15802;45.654;13.804;2023-03-04T05:06:50;8.50;99.90
28608;DHT22;15802;45.654;13.804;2023-03-04T05:09:16;8.40;99.90
28608;DHT22;15802;45.654;13.804;2023-03-04T05:11:41;8.10;99.90
28608;DHT22;15802;45.654;13.804;2023-03-04T05:14:07;8.00;99.90
28608;DHT22;15802;45.654;13.804;2023-03-04T05:16:33;8.00;99.90
28608;DHT22;15802;45.654;13.804;2023-03-04T05:18:58;8.00;99.90
28608;DHT22;15802;45.654;13.804;2023-03-04T05:21:24;8.20;99.90
28608;DHT22;15802;45.654;13.804;2023-03-04T05:23:49;8.30;99.90
28608;DHT22;15802;45.654;13.804;2023-03-04T05:26:16;8.40;99.90
28608;DHT22;15802;45.654;13.804;2023-03-04T05:28:42;8.50;99.90
28608;DHT22;15802;45.654;13.804;2023-03-04T05:31:08;8.50;99.90
28608;DHT22;15802;45.654;13.804;2023-03-04T05:33:34;8.50;99.90
28608;DHT22;15802;45.654;13.804;2023-03-04T05:36:00;8.50;99.90
28608;DHT22;15802;45.654;13.804;2023-03-04T05:38:26;8.50;99.90
28608;DHT22;15802;45.654;13.804;2023-03-04T05:40:56;8.60;99.90
28608;DHT22;15802;45.654;13.804;2023-03-04T05:43:22;8.60;99.90
28608;DHT22;15802;45.654;13.804;2023-03-04T05:45:48;8.60;99.90
28608;DHT22;15802;45.654;13.804;2023-03-04T05:48:14;8.60;99.90
28608;DHT22;15802;45.654;13.804;2023-03-04T05:50:39;8.50;99.90
28608;DHT22;15802;45.654;13.804;2023-03-04T05:53:05;8.60;99.90
28608;DHT22;15802;45.654;13.804;2023-03-04T05:55:31;8.60;99.90
28608;DHT22;15802;45.654;13.804;2023-03-04T05:57:57;8.60;99.90
28608;DHT22;15802;45.654;13.804;2023-03-04T06:00:22;8.50;99.90
28608;DHT22;15802;45.654;13.804;2023-03-04T06:02:48;8.40;99.90
28608;DHT22;15802;45.654;13.804;2023-03-04T06:05:14;8.30;99.90
28608;DHT22;15802;45.654;13.804;2023-03-04T06:07:40;8.20;99.90
28608;DHT22;15802;45.654;13.804;2023-03-04T06:10:07;8.20;99.90
28608;DHT22;15802;45.654;13.804;2023-03-04T06:12:33;8.20;99.90
28608;DHT22;15802;45.654;13.804;2023-03-04T06:14:59;8.20;99.90
28608;DHT22;15802;45.654;13.804;2023-03-04T06:17:25;8.10;99.90
28608;DHT22;15802;45.654;13.804;2023-03-04T06:19:50;8.10;99.90
28608;DHT22;15802;45.654;13.804;2023-03-04T06:22:16;8.10;99.90
28608;DHT22;15802;45.654;13.804;2023-03-04T06:24:42;8.10;99.90
28608;DHT22;15802;45.654;13.804;2023-03-04T06:27:07;8.10;99.90
28608;DHT22;15802;45.654;13.804;2023-03-04T06:29:33;8.10;99.90
28608;DHT22;15802;45.654;13.804;2023-03-04T06:31:58;8.20;99.90
28608;DHT22;15802;45.654;13.804;2023-03-04T06:34:24;8.10;99.90
28608;DHT22;15802;45.654;13.804;2023-03-04T06:36:50;8.20;99.90
28608;DHT22;15802;45.654;13.804;2023-03-04T06:39:16;8.30;99.90
28608;DHT22;15802;45.654;13.804;2023-03-04T06:41:41;8.40;99.90
28608;DHT22;15802;45.654;13.804;2023-03-04T06:44:07;8.40;99.90
28608;DHT22;15802;45.654;13.804;2023-03-04T06:46:33;8.50;99.90
28608;DHT22;15802;45.654;13.804;2023-03-04T06:48:59;8.50;99.90
28608;DHT22;15802;45.654;13.804;2023-03-04T06:51:24;8.50;99.90
28608;DHT22;15802;45.654;13.804;2023-03-04T06:53:50;8.60;99.90
28608;DHT22;15802;45.654;13.804;2023-03-04T06:56:16;8.60;99.90
28608;DHT22;15802;45.654;13.804;2023-03-04T06:58:42;8.50;99.90
28608;DHT22;15802;45.654;13.804;2023-03-04T07:01:16;8.60;99.90
28608;DHT22;15802;45.654;13.804;2023-03-04T07:03:41;8.70;99.90
28608;DHT22;15802;45.654;13.804;2023-03-04T07:06:09;8.70;99.90
28608;DHT22;15802;45.654;13.804;2023-03-04T07:08:35;8.70;99.90
28608;DHT22;15802;45.654;13.804;2023-03-04T07:11:00;8.70;99.90
28608;DHT22;15802;45.654;13.804;2023-03-04T07:13:26;8.80;99.90
28608;DHT22;15802;45.654;13.804;2023-03-04T07:15:52;8.70;99.90
28608;DHT22;15802;45.654;13.804;2023-03-04T07:18:17;8.80;99.90
28608;DHT22;15802;45.654;13.804;2023-03-04T07:20:43;8.90;99.90
28608;DHT22;15802;45.654;13.804;2023-03-04T07:23:09;9.00;99.90
28608;DHT22;15802;45.654;13.804;2023-03-04T07:25:34;9.00;99.90
28608;DHT22;15802;45.654;13.804;2023-03-04T07:28:00;9.00;99.90
28608;DHT22;15802;45.654;13.804;2023-03-04T07:30:35;9.00;99.90
28608;DHT22;15802;45.654;13.804;2023-03-04T07:33:00;9.10;99.90
28608;DHT22;15802;45.654;13.804;2023-03-04T07:35:26;9.20;99.90
28608;DHT22;15802;45.654;13.804;2023-03-04T07:37:52;9.30;99.90
28608;DHT22;15802;45.654;13.804;2023-03-04T07:40:17;9.40;99.90
28608;DHT22;15802;45.654;13.804;2023-03-04T07:42:48;9.40;99.90
28608;DHT22;15802;45.654;13.804;2023-03-04T07:45:13;9.50;99.90
28608;DHT22;15802;45.654;13.804;2023-03-04T07:47:39;9.60;99.90
28608;DHT22;15802;45.654;13.804;2023-03-04T07:50:05;9.70;99.90
28608;DHT22;15802;45.654;13.804;2023-03-04T07:52:31;9.80;99.90
28608;DHT22;15802;45.654;13.804;2023-03-04T07:54:57;9.80;99.90
28608;DHT22;15802;45.654;13.804;2023-03-04T07:57:22;9.90;99.90
28608;DHT22;15802;45.654;13.804;2023-03-04T07:59:48;9.90;99.90
28608;DHT22;15802;45.654;13.804;2023-03-04T08:02:14;10.00;99.90
28608;DHT22;15802;45.654;13.804;2023-03-04T08:04:39;10.10;99.90
28608;DHT22;15802;45.654;13.804;2023-03-04T08:07:05;10.20;99.90
28608;DHT22;15802;45.654;13.804;2023-03-04T08:09:31;10.20;99.90
28608;DHT22;15802;45.654;13.804;2023-03-04T08:11:57;10.20;99.90
28608;DHT22;15802;45.654;13.804;2023-03-04T08:14:22;10.30;99.90
28608;DHT22;15802;45.654;13.804;2023-03-04T08:16:48;10.40;99.90
28608;DHT22;15802;45.654;13.804;2023-03-04T08:19:14;10.50;99.90
28608;DHT22;15802;45.654;13.804;2023-03-04T08:21:39;10.50;99.90
28608;DHT22;15802;45.654;13.804;2023-03-04T08:24:05;10.60;99.90
28608;DHT22;15802;45.654;13.804;2023-03-04T08:26:34;10.60;99.90
28608;DHT22;15802;45.654;13.804;2023-03-04T08:29:00;10.60;99.90
28608;DHT22;15802;45.654;13.804;2023-03-04T08:31:26;10.70;99.90
28608;DHT22;15802;45.654;13.804;2023-03-04T08:33:52;10.90;99.90
28608;DHT22;15802;45.654;13.804;2023-03-04T08:36:18;10.90;99.90
28608;DHT22;15802;45.654;13.804;2023-03-04T08:38:44;10.90;99.90
28608;DHT22;15802;45.654;13.804;2023-03-04T08:41:09;11.10;99.90
28608;DHT22;15802;45.654;13.804;2023-03-04T08:43:35;11.20;99.90
28608;DHT22;15802;45.654;13.804;2023-03-04T08:46:01;11.20;99.90
28608;DHT22;15802;45.654;13.804;2023-03-04T08:48:27;11.20;99.90
28608;DHT22;15802;45.654;13.804;2023-03-04T08:50:53;11.20;99.90
28608;DHT22;15802;45.654;13.804;2023-03-04T08:53:19;11.30;99.90
28608;DHT22;15802;45.654;13.804;2023-03-04T08:55:45;11.40;99.90
28608;DHT22;15802;45.654;13.804;2023-03-04T08:58:11;11.40;99.90
28608;DHT22;15802;45.654;13.804;2023-03-04T09:00:38;11.50;99.90
28608;DHT22;15802;45.654;13.804;2023-03-04T09:03:04;11.60;99.90
28608;DHT22;15802;45.654;13.804;2023-03-04T09:05:30;11.70;99.90
28608;DHT22;15802;45.654;13.804;2023-03-04T09:07:56;11.70;99.90
28608;DHT22;15802;45.654;13.804;2023-03-04T09:10:22;11.80;99.90
28608;DHT22;15802;45.654;13.804;2023-03-04T09:12:47;11.90;99.90
28608;DHT22;15802;45.654;13.804;2023-03-04T09:15:13;12.00;99.90
28608;DHT22;15802;45.654;13.804;2023-03-04T09:17:39;12.10;99.90
28608;DHT22;15802;45.654;13.804;2023-03-04T09:20:06;12.10;99.90
28608;DHT22;15802;45.654;13.804;2023-03-04T09:22:34;12.20;99.90
28608;DHT22;15802;45.654;13.804;2023-03-04T09:25:00;12.30;99.90
28608;DHT22;15802;45.654;13.804;2023-03-04T09:27:26;12.40;99.90
28608;DHT22;15802;45.654;13.804;2023-03-04T09:29:51;12.50;99.90
28608;DHT22;15802;45.654;13.804;2023-03-04T09:34:49;12.50;99.90
28608;DHT22;15802;45.654;13.804;2023-03-04T09:37:14;12.60;99.90
28608;DHT22;15802;45.654;13.804;2023-03-04T09:39:40;12.70;99.90
28608;DHT22;15802;45.654;13.804;2023-03-04T09:42:06;12.70;99.90
28608;DHT22;15802;45.654;13.804;2023-03-04T09:44:36;12.80;99.90
28608;DHT22;15802;45.654;13.804;2023-03-04T09:47:04;12.90;99.90
28608;DHT22;15802;45.654;13.804;2023-03-04T09:49:30;13.00;99.90
28608;DHT22;15802;45.654;13.804;2023-03-04T09:51:59;13.00;99.90
28608;DHT22;15802;45.654;13.804;2023-03-04T09:54:32;13.10;99.90
28608;DHT22;15802;45.654;13.804;2023-03-04T10:00:04;13.30;99.90
28608;DHT22;15802;45.654;13.804;2023-03-04T10:02:36;13.40;99.90
28608;DHT22;15802;45.654;13.804;2023-03-04T10:05:03;13.40;99.90
28608;DHT22;15802;45.654;13.804;2023-03-04T10:07:32;13.40;99.90
28608;DHT22;15802;45.654;13.804;2023-03-04T10:10:00;13.40;99.90
28608;DHT22;15802;45.654;13.804;2023-03-04T10:12:28;13.40;99.90
28608;DHT22;15802;45.654;13.804;2023-03-04T10:14:57;13.40;99.90
28608;DHT22;15802;45.654;13.804;2023-03-04T10:17:40;13.40;99.90
28608;DHT22;15802;45.654;13.804;2023-03-04T10:20:11;13.40;99.90
28608;DHT22;15802;45.654;13.804;2023-03-04T10:22:42;13.40;99.90
28608;DHT22;15802;45.654;13.804;2023-03-04T10:25:25;13.50;99.90
28608;DHT22;15802;45.654;13.804;2023-03-04T10:27:54;13.50;99.90
28608;DHT22;15802;45.654;13.804;2023-03-04T10:30:25;13.60;99.90
28608;DHT22;15802;45.654;13.804;2023-03-04T10:32:53;13.60;99.90
28608;DHT22;15802;45.654;13.804;2023-03-04T10:35:20;13.70;99.90
28608;DHT22;15802;45.654;13.804;2023-03-04T10:37:50;13.60;99.90
28608;DHT22;15802;45.654;13.804;2023-03-04T10:40:18;13.60;99.90
28608;DHT22;15802;45.654;13.804;2023-03-04T10:42:44;13.60;99.90
28608;DHT22;15802;45.654;13.804;2023-03-04T10:45:24;13.70;99.90
28608;DHT22;15802;45.654;13.804;2023-03-04T10:47:52;13.60;99.90
28608;DHT22;15802;45.654;13.804;2023-03-04T10:50:22;13.50;99.90
28608;DHT22;15802;45.654;13.804;2023-03-04T10:52:49;13.50;99.90
28608;DHT22;15802;45.654;13.804;2023-03-04T10:55:18;13.50;99.90
28608;DHT22;15802;45.654;13.804;2023-03-04T10:57:46;13.50;99.90
28608;DHT22;15802;45.654;13.804;2023-03-04T11:00:23;13.50;99.90
28608;DHT22;15802;45.654;13.804;2023-03-04T11:02:49;13.50;99.90
28608;DHT22;15802;45.654;13.804;2023-03-04T11:05:19;13.60;99.90
28608;DHT22;15802;45.654;13.804;2023-03-04T11:07:53;13.60;99.90
28608;DHT22;15802;45.654;13.804;2023-03-04T11:10:21;13.50;99.90
28608;DHT22;15802;45.654;13.804;2023-03-04T11:12:49;13.60;99.90
28608;DHT22;15802;45.654;13.804;2023-03-04T11:15:18;13.70;99.90
28608;DHT22;15802;45.654;13.804;2023-03-04T11:17:46;13.80;99.90
28608;DHT22;15802;45.654;13.804;2023-03-04T11:20:22;13.80;99.90
28608;DHT22;15802;45.654;13.804;2023-03-04T11:22:49;13.70;99.90
28608;DHT22;15802;45.654;13.804;2023-03-04T11:25:26;13.80;99.90
28608;DHT22;15802;45.654;13.804;2023-03-04T11:27:54;13.80;99.90
28608;DHT22;15802;45.654;13.804;2023-03-04T11:30:32;13.80;99.90
28608;DHT22;15802;45.654;13.804;2023-03-04T11:33:16;13.90;99.90
28608;DHT22;15802;45.654;13.804;2023-03-04T11:35:48;13.90;99.90
28608;DHT22;15802;45.654;13.804;2023-03-04T11:38:18;14.00;99.90
28608;DHT22;15802;45.654;13.804;2023-03-04T11:40:46;14.10;99.90
28608;DHT22;15802;45.654;13.804;2023-03-04T11:43:16;14.10;99.90
28608;DHT22;15802;45.654;13.804;2023-03-04T11:48:38;14.20;99.90
28608;DHT22;15802;45.654;13.804;2023-03-04T11:51:11;14.30;99.90
28608;DHT22;15802;45.654;13.804;2023-03-04T11:56:26;14.40;99.90
28608;DHT22;15802;45.654;13.804;2023-03-04T11:59:01;14.40;99.90
28608;DHT22;15802;45.654;13.804;2023-03-04T12:04:24;14.60;99.90
28608;DHT22;15802;45.654;13.804;2023-03-04T12:07:12;14.40;99.90
28608;DHT22;15802;45.654;13.804;2023-03-04T12:10:01;14.50;99.90
28608;DHT22;15802;45.654;13.804;2023-03-04T12:12:31;14.50;98.80
28608;DHT22;15802;45.654;13.804;2023-03-04T12:15:01;14.60;98.20
28608;DHT22;15802;45.654;13.804;2023-03-04T12:17:42;14.60;97.90
28608;DHT22;15802;45.654;13.804;2023-03-04T12:20:16;14.60;95.60
28608;DHT22;15802;45.654;13.804;2023-03-04T12:22:44;14.50;95.50
28608;DHT22;15802;45.654;13.804;2023-03-04T12:25:15;14.60;96.30
28608;DHT22;15802;45.654;13.804;2023-03-04T12:27:47;14.70;96.20
28608;DHT22;15802;45.654;13.804;2023-03-04T12:33:06;14.80;95.00
28608;DHT22;15802;45.654;13.804;2023-03-04T12:35:37;14.80;94.50
28608;DHT22;15802;45.654;13.804;2023-03-04T12:38:18;14.70;95.10
28608;DHT22;15802;45.654;13.804;2023-03-04T12:40:51;14.70;94.40
28608;DHT22;15802;45.654;13.804;2023-03-04T12:46:09;14.60;94.40
28608;DHT22;15802;45.654;13.804;2023-03-04T12:48:38;14.70;93.60
28608;DHT22;15802;45.654;13.804;2023-03-04T12:51:08;14.80;94.00
28608;DHT22;15802;45.654;13.804;2023-03-04T12:56:26;14.90;94.20
28608;DHT22;15802;45.654;13.804;2023-03-04T12:58:52;15.00;93.10
28608;DHT22;15802;45.654;13.804;2023-03-04T13:06:55;15.00;93.60
28608;DHT22;15802;45.654;13.804;2023-03-04T13:12:13;15.20;94.40
28608;DHT22;15802;45.654;13.804;2023-03-04T13:14:40;15.10;94.10
28608;DHT22;15802;45.654;13.804;2023-03-04T13:20:35;15.10;94.40
28608;DHT22;15802;45.654;13.804;2023-03-04T13:23:03;15.20;94.30
28608;DHT22;15802;45.654;13.804;2023-03-04T13:25:46;15.40;93.80
28608;DHT22;15802;45.654;13.804;2023-03-04T13:28:13;15.50;94.60
28608;DHT22;15802;45.654;13.804;2023-03-04T13:30:41;15.50;94.40
28608;DHT22;15802;45.654;13.804;2023-03-04T13:35:59;15.60;94.90
28608;DHT22;15802;45.654;13.804;2023-03-04T13:38:31;15.60;95.10
28608;DHT22;15802;45.654;13.804;2023-03-04T13:43:46;15.70;96.00
28608;DHT22;15802;45.654;13.804;2023-03-04T13:46:28;15.60;96.20
28608;DHT22;15802;45.654;13.804;2023-03-04T13:48:59;15.60;95.50
28608;DHT22;15802;45.654;13.804;2023-03-04T13:51:28;15.60;93.50
28608;DHT22;15802;45.654;13.804;2023-03-04T13:53:55;15.60;94.80
28608;DHT22;15802;45.654;13.804;2023-03-04T13:56:33;15.50;94.30
28608;DHT22;15802;45.654;13.804;2023-03-04T13:59:20;15.50;94.70
28608;DHT22;15802;45.654;13.804;2023-03-04T14:01:50;15.60;93.90
28608;DHT22;15802;45.654;13.804;2023-03-04T14:04:18;15.50;94.50
28608;DHT22;15802;45.654;13.804;2023-03-04T14:06:44;15.50;93.50
28608;DHT22;15802;45.654;13.804;2023-03-04T14:09:12;15.40;93.80
28608;DHT22;15802;45.654;13.804;2023-03-04T14:11:38;15.50;93.80
28608;DHT22;15802;45.654;13.804;2023-03-04T14:14:09;15.50;94.20
28608;DHT22;15802;45.654;13.804;2023-03-04T14:16:37;15.40;94.50
28608;DHT22;15802;45.654;13.804;2023-03-04T14:19:04;15.40;93.40
28608;DHT22;15802;45.654;13.804;2023-03-04T14:21:31;15.40;92.60
28608;DHT22;15802;45.654;13.804;2023-03-04T14:23:58;15.40;92.70
28608;DHT22;15802;45.654;13.804;2023-03-04T14:26:24;15.40;91.40
28608;DHT22;15802;45.654;13.804;2023-03-04T14:28:50;15.30;92.30
28608;DHT22;15802;45.654;13.804;2023-03-04T14:31:17;15.30;91.90
28608;DHT22;15802;45.654;13.804;2023-03-04T14:33:44;15.30;92.30
28608;DHT22;15802;45.654;13.804;2023-03-04T14:36:14;15.30;92.60
28608;DHT22;15802;45.654;13.804;2023-03-04T14:38:40;15.30;92.60
28608;DHT22;15802;45.654;13.804;2023-03-04T14:41:10;15.30;92.50
28608;DHT22;15802;45.654;13.804;2023-03-04T14:43:46;15.30;92.10
28608;DHT22;15802;45.654;13.804;2023-03-04T14:46:13;15.30;91.80
28608;DHT22;15802;45.654;13.804;2023-03-04T14:48:40;15.40;92.10
28608;DHT22;15802;45.654;13.804;2023-03-04T14:51:32;15.50;91.70
28608;DHT22;15802;45.654;13.804;2023-03-04T14:53:56;15.40;91.30
28608;DHT22;15802;45.654;13.804;2023-03-04T14:56:29;15.40;91.60
28608;DHT22;15802;45.654;13.804;2023-03-04T14:58:56;15.40;91.10
28608;DHT22;15802;45.654;13.804;2023-03-04T15:01:31;15.40;90.70
28608;DHT22;15802;45.654;13.804;2023-03-04T15:04:06;15.40;90.70
28608;DHT22;15802;45.654;13.804;2023-03-04T15:06:35;15.30;90.00
28608;DHT22;15802;45.654;13.804;2023-03-04T15:09:02;15.30;90.30
28608;DHT22;15802;45.654;13.804;2023-03-04T15:11:30;15.30;89.10
28608;DHT22;15802;45.654;13.804;2023-03-04T15:13:57;15.30;89.30
28608;DHT22;15802;45.654;13.804;2023-03-04T15:16:24;15.30;90.00
28608;DHT22;15802;45.654;13.804;2023-03-04T15:18:54;15.20;90.50
28608;DHT22;15802;45.654;13.804;2023-03-04T15:21:30;15.20;88.40
28608;DHT22;15802;45.654;13.804;2023-03-04T15:23:56;15.30;89.00
28608;DHT22;15802;45.654;13.804;2023-03-04T15:26:22;15.20;89.40
28608;DHT22;15802;45.654;13.804;2023-03-04T15:28:47;15.20;87.90
28608;DHT22;15802;45.654;13.804;2023-03-04T15:31:17;15.20;87.90
28608;DHT22;15802;45.654;13.804;2023-03-04T15:33:43;15.10;88.40
28608;DHT22;15802;45.654;13.804;2023-03-04T15:36:11;15.20;90.10
28608;DHT22;15802;45.654;13.804;2023-03-04T15:38:38;15.10;90.30
28608;DHT22;15802;45.654;13.804;2023-03-04T15:41:04;15.10;90.40
28608;DHT22;15802;45.654;13.804;2023-03-04T15:43:30;15.00;90.50
28608;DHT22;15802;45.654;13.804;2023-03-04T15:45:56;15.00;90.20
28608;DHT22;15802;45.654;13.804;2023-03-04T15:48:22;14.90;90.10
28608;DHT22;15802;45.654;13.804;2023-03-04T15:50:50;14.90;89.70
28608;DHT22;15802;45.654;13.804;2023-03-04T15:53:37;14.80;89.80
28608;DHT22;15802;45.654;13.804;2023-03-04T15:56:04;14.80;88.40
28608;DHT22;15802;45.654;13.804;2023-03-04T15:58:32;14.80;88.20
28608;DHT22;15802;45.654;13.804;2023-03-04T16:00:58;14.80;88.80
28608;DHT22;15802;45.654;13.804;2023-03-04T16:03:23;14.70;89.20
28608;DHT22;15802;45.654;13.804;2023-03-04T16:05:49;14.70;89.80
28608;DHT22;15802;45.654;13.804;2023-03-04T16:08:16;14.60;89.80